sensor_id;sensor_type;location;lat;lon;timestamp;temperature;humidity
80192;SHT31;69513;51.990;5.704;2023-08-08T00:01:23;17.0;70.4
80192;SHT31;69513;51.990;5.704;2023-08-08T00:03:52;17.0;70.4
80192;SHT31;69513;51.990;5.704;2023-08-08T00:06:22;17.0;70.4
80192;SHT31;69513;51.990;5.704;2023-08-08T00:08:51;17.0;70.8
80192;SHT31;69513;51.990;5.704;2023-08-08T00:11:21;17.0;71.3
80192;SHT31;69513;51.990;5.704;2023-08-08T00:13:51;16.9;71.2
80192;SHT31;69513;51.990;5.704;2023-08-08T00:16:20;16.9;71.3
80192;SHT31;69513;51.990;5.704;2023-08-08T00:18:50;16.9;71.4
80192;SHT31;69513;51.990;5.704;2023-08-08T00:21:21;16.9;71.7
80192;SHT31;69513;51.990;5.704;2023-08-08T00:23:52;16.9;71.6
80192;SHT31;69513;51.990;5.704;2023-08-08T00:26:22;16.9;72.1
80192;SHT31;69513;51.990;5.704;2023-08-08T00:28:51;16.9;71.6
80192;SHT31;69513;51.990;5.704;2023-08-08T00:31:21;16.9;71.6
80192;SHT31;69513;51.990;5.704;2023-08-08T00:33:51;16.9;72.0
80192;SHT31;69513;51.990;5.704;2023-08-08T00:36:20;17.0;72.1
80192;SHT31;69513;51.990;5.704;2023-08-08T00:38:50;17.0;72.1
80192;SHT31;69513;51.990;5.704;2023-08-08T00:41:19;17.0;72.3
80192;SHT31;69513;51.990;5.704;2023-08-08T00:43:49;17.0;72.3
80192;SHT31;69513;51.990;5.704;2023-08-08T00:46:21;17.0;72.2
80192;SHT31;69513;51.990;5.704;2023-08-08T00:48:54;17.0;72.2
80192;SHT31;69513;51.990;5.704;2023-08-08T00:51:24;17.0;72.2
80192;SHT31;69513;51.990;5.704;2023-08-08T00:53:56;17.0;72.0
80192;SHT31;69513;51.990;5.704;2023-08-08T00:56:28;17.0;72.4
80192;SHT31;69513;51.990;5.704;2023-08-08T00:58:59;17.0;72.4
80192;SHT31;69513;51.990;5.704;2023-08-08T01:01:28;17.0;72.4
80192;SHT31;69513;51.990;5.704;2023-08-08T01:03:59;17.0;72.8
80192;SHT31;69513;51.990;5.704;2023-08-08T01:06:38;17.0;73.0
80192;SHT31;69513;51.990;5.704;2023-08-08T01:09:17;17.0;73.0
80192;SHT31;69513;51.990;5.704;2023-08-08T01:11:50;17.0;73.5
80192;SHT31;69513;51.990;5.704;2023-08-08T01:14:25;17.1;73.7
80192;SHT31;69513;51.990;5.704;2023-08-08T01:16:56;17.1;73.6
80192;SHT31;69513;51.990;5.704;2023-08-08T01:19:30;17.1;73.5
80192;SHT31;69513;51.990;5.704;2023-08-08T01:22:06;17.1;73.6
80192;SHT31;69513;51.990;5.704;2023-08-08T01:24:38;17.1;73.8
80192;SHT31;69513;51.990;5.704;2023-08-08T01:27:12;17.1;73.8
80192;SHT31;69513;51.990;5.704;2023-08-08T01:29:43;17.2;73.7
80192;SHT31;69513;51.990;5.704;2023-08-08T01:32:13;17.2;73.8
80192;SHT31;69513;51.990;5.704;2023-08-08T01:34:44;17.2;73.7
80192;SHT31;69513;51.990;5.704;2023-08-08T01:37:21;17.2;73.7
80192;SHT31;69513;51.990;5.704;2023-08-08T01:39:58;17.2;73.4
80192;SHT31;69513;51.990;5.704;2023-08-08T01:42:30;17.2;73.5
80192;SHT31;69513;51.990;5.704;2023-08-08T01:45:02;17.2;73.5
80192;SHT31;69513;51.990;5.704;2023-08-08T01:47:33;17.2;73.2
80192;SHT31;69513;51.990;5.704;2023-08-08T01:50:05;17.2;73.0
80192;SHT31;69513;51.990;5.704;2023-08-08T01:52:36;17.2;73.0
80192;SHT31;69513;51.990;5.704;2023-08-08T01:55:09;17.2;73.0
80192;SHT31;69513;51.990;5.704;2023-08-08T01:57:39;17.1;73.1
80192;SHT31;69513;51.990;5.704;2023-08-08T02:00:12;17.1;73.3
80192;SHT31;69513;51.990;5.704;2023-08-08T02:02:42;17.1;73.3
80192;SHT31;69513;51.990;5.704;2023-08-08T02:05:12;17.1;73.3
80192;SHT31;69513;51.990;5.704;2023-08-08T02:07:42;17.1;72.8
80192;SHT31;69513;51.990;5.704;2023-08-08T02:10:11;17.1;73.0
80192;SHT31;69513;51.990;5.704;2023-08-08T02:12:41;17.1;73.1
80192;SHT31;69513;51.990;5.704;2023-08-08T02:15:11;17.1;73.0
80192;SHT31;69513;51.990;5.704;2023-08-08T02:17:41;17.0;72.9
80192;SHT31;69513;51.990;5.704;2023-08-08T02:20:12;17.0;72.7
80192;SHT31;69513;51.990;5.704;2023-08-08T02:22:43;17.0;72.6
80192;SHT31;69513;51.990;5.704;2023-08-08T02:25:14;17.0;72.5
80192;SHT31;69513;51.990;5.704;2023-08-08T02:27:44;17.0;72.5
80192;SHT31;69513;51.990;5.704;2023-08-08T02:30:16;17.0;72.6
80192;SHT31;69513;51.990;5.704;2023-08-08T02:32:47;16.9;72.5
80192;SHT31;69513;51.990;5.704;2023-08-08T02:35:18;16.9;72.7
80192;SHT31;69513;51.990;5.704;2023-08-08T02:37:48;16.9;72.8
80192;SHT31;69513;51.990;5.704;2023-08-08T02:40:21;16.9;72.8
80192;SHT31;69513;51.990;5.704;2023-08-08T02:42:54;16.9;72.7
80192;SHT31;69513;51.990;5.704;2023-08-08T02:45:24;16.9;72.8
80192;SHT31;69513;51.990;5.704;2023-08-08T02:47:53;16.8;72.7
80192;SHT31;69513;51.990;5.704;2023-08-08T02:50:25;16.8;72.8
80192;SHT31;69513;51.990;5.704;2023-08-08T02:52:56;16.8;72.9
80192;SHT31;69513;51.990;5.704;2023-08-08T02:55:26;16.8;72.8
80192;SHT31;69513;51.990;5.704;2023-08-08T02:57:55;16.7;72.9
80192;SHT31;69513;51.990;5.704;2023-08-08T03:00:26;16.7;72.9
80192;SHT31;69513;51.990;5.704;2023-08-08T03:02:55;16.7;73.2
80192;SHT31;69513;51.990;5.704;2023-08-08T03:05:25;16.7;73.2
80192;SHT31;69513;51.990;5.704;2023-08-08T03:07:55;16.6;73.3
80192;SHT31;69513;51.990;5.704;2023-08-08T03:10:25;16.6;73.6
80192;SHT31;69513;51.990;5.704;2023-08-08T03:12:55;16.6;73.8
80192;SHT31;69513;51.990;5.704;2023-08-08T03:15:25;16.6;74.0
80192;SHT31;69513;51.990;5.704;2023-08-08T03:17:57;16.6;74.1
80192;SHT31;69513;51.990;5.704;2023-08-08T03:20:29;16.6;74.5
80192;SHT31;69513;51.990;5.704;2023-08-08T03:22:58;16.6;74.7
80192;SHT31;69513;51.990;5.704;2023-08-08T03:25:30;16.6;74.7
80192;SHT31;69513;51.990;5.704;2023-08-08T03:28:00;16.6;74.8
80192;SHT31;69513;51.990;5.704;2023-08-08T03:30:31;16.7;74.8
80192;SHT31;69513;51.990;5.704;2023-08-08T03:33:01;16.7;74.6
80192;SHT31;69513;51.990;5.704;2023-08-08T03:35:30;16.7;74.4
80192;SHT31;69513;51.990;5.704;2023-08-08T03:38:01;16.7;74.4
80192;SHT31;69513;51.990;5.704;2023-08-08T03:40:32;16.7;74.4
80192;SHT31;69513;51.990;5.704;2023-08-08T03:43:02;16.7;74.5
80192;SHT31;69513;51.990;5.704;2023-08-08T03:45:33;16.7;74.4
80192;SHT31;69513;51.990;5.704;2023-08-08T03:48:04;16.7;74.3
80192;SHT31;69513;51.990;5.704;2023-08-08T03:50:34;16.7;74.4
80192;SHT31;69513;51.990;5.704;2023-08-08T03:53:06;16.7;74.2
80192;SHT31;69513;51.990;5.704;2023-08-08T03:55:35;16.7;74.3
80192;SHT31;69513;51.990;5.704;2023-08-08T03:58:06;16.7;74.3
80192;SHT31;69513;51.990;5.704;2023-08-08T04:00:38;16.7;74.3
80192;SHT31;69513;51.990;5.704;2023-08-08T04:03:16;16.7;74.3
80192;SHT31;69513;51.990;5.704;2023-08-08T04:05:47;16.7;74.4
80192;SHT31;69513;51.990;5.704;2023-08-08T04:08:17;16.7;74.4
80192;SHT31;69513;51.990;5.704;2023-08-08T04:10:48;16.7;74.5
80192;SHT31;69513;51.990;5.704;2023-08-08T04:13:17;16.7;74.4
80192;SHT31;69513;51.990;5.704;2023-08-08T04:15:47;16.7;74.3
80192;SHT31;69513;51.990;5.704;2023-08-08T04:18:19;16.7;74.3
80192;SHT31;69513;51.990;5.704;2023-08-08T04:20:49;16.7;74.4
80192;SHT31;69513;51.990;5.704;2023-08-08T04:23:19;16.7;74.3
80192;SHT31;69513;51.990;5.704;2023-08-08T04:25:50;16.7;74.3
80192;SHT31;69513;51.990;5.704;2023-08-08T04:28:21;16.7;74.3
80192;SHT31;69513;51.990;5.704;2023-08-08T04:30:51;16.7;74.4
80192;SHT31;69513;51.990;5.704;2023-08-08T04:33:21;16.7;74.4
80192;SHT31;69513;51.990;5.704;2023-08-08T04:35:53;16.7;74.6
80192;SHT31;69513;51.990;5.704;2023-08-08T04:38:23;16.7;74.8
80192;SHT31;69513;51.990;5.704;2023-08-08T04:40:53;16.7;74.8
80192;SHT31;69513;51.990;5.704;2023-08-08T04:43:23;16.7;74.9
80192;SHT31;69513;51.990;5.704;2023-08-08T04:45:52;16.7;75.1
80192;SHT31;69513;51.990;5.704;2023-08-08T04:48:22;16.7;75.2
80192;SHT31;69513;51.990;5.704;2023-08-08T04:50:52;16.7;75.4
80192;SHT31;69513;51.990;5.704;2023-08-08T04:53:22;16.7;75.4
80192;SHT31;69513;51.990;5.704;2023-08-08T04:55:53;16.7;75.3
80192;SHT31;69513;51.990;5.704;2023-08-08T04:58:23;16.7;75.1
80192;SHT31;69513;51.990;5.704;2023-08-08T05:00:52;16.7;75.0
80192;SHT31;69513;51.990;5.704;2023-08-08T05:03:23;16.7;74.8
80192;SHT31;69513;51.990;5.704;2023-08-08T05:05:52;16.7;74.7
80192;SHT31;69513;51.990;5.704;2023-08-08T05:08:24;16.7;74.7
80192;SHT31;69513;51.990;5.704;2023-08-08T05:10:53;16.7;74.8
80192;SHT31;69513;51.990;5.704;2023-08-08T05:13:23;16.7;74.9
80192;SHT31;69513;51.990;5.704;2023-08-08T05:15:52;16.7;75.4
80192;SHT31;69513;51.990;5.704;2023-08-08T05:18:22;16.7;75.4
80192;SHT31;69513;51.990;5.704;2023-08-08T05:20:52;16.7;75.6
80192;SHT31;69513;51.990;5.704;2023-08-08T05:23:24;16.7;75.7
80192;SHT31;69513;51.990;5.704;2023-08-08T05:25:53;16.7;75.9
80192;SHT31;69513;51.990;5.704;2023-08-08T05:28:23;16.8;76.0
80192;SHT31;69513;51.990;5.704;2023-08-08T05:30:53;16.8;76.0
80192;SHT31;69513;51.990;5.704;2023-08-08T05:33:24;16.8;76.2
80192;SHT31;69513;51.990;5.704;2023-08-08T05:35:54;16.8;76.3
80192;SHT31;69513;51.990;5.704;2023-08-08T05:38:24;16.8;76.2
80192;SHT31;69513;51.990;5.704;2023-08-08T05:40:54;16.8;75.9
80192;SHT31;69513;51.990;5.704;2023-08-08T05:43:23;16.8;76.4
80192;SHT31;69513;51.990;5.704;2023-08-08T05:45:55;16.8;76.1
80192;SHT31;69513;51.990;5.704;2023-08-08T05:48:25;16.9;75.9
80192;SHT31;69513;51.990;5.704;2023-08-08T05:50:55;16.9;76.1
80192;SHT31;69513;51.990;5.704;2023-08-08T05:53:26;16.9;76.2
80192;SHT31;69513;51.990;5.704;2023-08-08T05:55:56;16.9;76.0
80192;SHT31;69513;51.990;5.704;2023-08-08T05:58:25;16.9;75.7
80192;SHT31;69513;51.990;5.704;2023-08-08T06:00:55;16.9;75.5
80192;SHT31;69513;51.990;5.704;2023-08-08T06:03:24;16.9;75.2
80192;SHT31;69513;51.990;5.704;2023-08-08T06:05:56;17.0;75.5
80192;SHT31;69513;51.990;5.704;2023-08-08T06:08:25;17.0;74.2
80192;SHT31;69513;51.990;5.704;2023-08-08T06:10:55;17.0;74.6
80192;SHT31;69513;51.990;5.704;2023-08-08T06:13:25;17.0;74.9
80192;SHT31;69513;51.990;5.704;2023-08-08T06:15:57;17.0;75.0
80192;SHT31;69513;51.990;5.704;2023-08-08T06:18:28;17.0;73.8
80192;SHT31;69513;51.990;5.704;2023-08-08T06:20:59;17.0;74.6
80192;SHT31;69513;51.990;5.704;2023-08-08T06:23:29;17.0;73.6
80192;SHT31;69513;51.990;5.704;2023-08-08T06:25:59;17.0;71.8
80192;SHT31;69513;51.990;5.704;2023-08-08T06:28:28;17.0;73.2
80192;SHT31;69513;51.990;5.704;2023-08-08T06:31:01;17.0;73.1
80192;SHT31;69513;51.990;5.704;2023-08-08T06:33:35;17.0;71.4
80192;SHT31;69513;51.990;5.704;2023-08-08T06:36:06;17.0;72.8
80192;SHT31;69513;51.990;5.704;2023-08-08T06:38:36;17.0;72.4
80192;SHT31;69513;51.990;5.704;2023-08-08T06:41:07;17.0;71.6
80192;SHT31;69513;51.990;5.704;2023-08-08T06:43:41;17.0;71.6
80192;SHT31;69513;51.990;5.704;2023-08-08T06:46:10;17.0;71.5
80192;SHT31;69513;51.990;5.704;2023-08-08T06:48:42;17.0;71.2
80192;SHT31;69513;51.990;5.704;2023-08-08T06:51:15;17.0;69.6
80192;SHT31;69513;51.990;5.704;2023-08-08T06:53:45;17.1;71.4
80192;SHT31;69513;51.990;5.704;2023-08-08T06:56:15;17.1;69.6
80192;SHT31;69513;51.990;5.704;2023-08-08T06:58:44;17.1;69.6
80192;SHT31;69513;51.990;5.704;2023-08-08T07:01:14;17.1;69.8
80192;SHT31;69513;51.990;5.704;2023-08-08T07:03:44;17.1;68.3
80192;SHT31;69513;51.990;5.704;2023-08-08T07:06:16;17.1;68.3
80192;SHT31;69513;51.990;5.704;2023-08-08T07:08:47;17.1;70.4
80192;SHT31;69513;51.990;5.704;2023-08-08T07:11:17;17.1;68.2
80192;SHT31;69513;51.990;5.704;2023-08-08T07:13:47;17.1;66.6
80192;SHT31;69513;51.990;5.704;2023-08-08T07:16:18;17.1;66.7
80192;SHT31;69513;51.990;5.704;2023-08-08T07:18:48;17.1;68.1
80192;SHT31;69513;51.990;5.704;2023-08-08T07:21:18;17.1;66.7
80192;SHT31;69513;51.990;5.704;2023-08-08T07:23:47;17.2;68.3
80192;SHT31;69513;51.990;5.704;2023-08-08T07:26:17;17.2;65.6
80192;SHT31;69513;51.990;5.704;2023-08-08T07:28:47;17.3;66.0
80192;SHT31;69513;51.990;5.704;2023-08-08T07:31:16;17.3;65.0
80192;SHT31;69513;51.990;5.704;2023-08-08T07:33:46;17.3;65.9
80192;SHT31;69513;51.990;5.704;2023-08-08T07:36:18;17.3;63.8
80192;SHT31;69513;51.990;5.704;2023-08-08T07:38:47;17.4;64.3
80192;SHT31;69513;51.990;5.704;2023-08-08T07:41:19;17.4;64.5
80192;SHT31;69513;51.990;5.704;2023-08-08T07:43:52;17.4;63.3
80192;SHT31;69513;51.990;5.704;2023-08-08T07:46:22;17.4;64.5
80192;SHT31;69513;51.990;5.704;2023-08-08T07:48:53;17.5;64.7
80192;SHT31;69513;51.990;5.704;2023-08-08T07:51:23;17.5;65.3
80192;SHT31;69513;51.990;5.704;2023-08-08T07:53:53;17.5;64.6
80192;SHT31;69513;51.990;5.704;2023-08-08T07:56:22;17.6;63.2
80192;SHT31;69513;51.990;5.704;2023-08-08T07:58:54;17.6;62.1
80192;SHT31;69513;51.990;5.704;2023-08-08T08:01:23;17.6;61.9
80192;SHT31;69513;51.990;5.704;2023-08-08T08:03:54;17.7;63.7
80192;SHT31;69513;51.990;5.704;2023-08-08T08:06:24;17.7;61.7
80192;SHT31;69513;51.990;5.704;2023-08-08T08:08:54;17.7;61.3
80192;SHT31;69513;51.990;5.704;2023-08-08T08:11:23;17.8;62.0
80192;SHT31;69513;51.990;5.704;2023-08-08T08:13:55;17.8;59.9
80192;SHT31;69513;51.990;5.704;2023-08-08T08:16:25;17.8;60.7
80192;SHT31;69513;51.990;5.704;2023-08-08T08:18:55;17.8;62.6
80192;SHT31;69513;51.990;5.704;2023-08-08T08:21:24;17.9;63.5
80192;SHT31;69513;51.990;5.704;2023-08-08T08:23:54;17.9;61.2
80192;SHT31;69513;51.990;5.704;2023-08-08T08:26:23;17.9;61.1
80192;SHT31;69513;51.990;5.704;2023-08-08T08:28:54;18.0;63.7
80192;SHT31;69513;51.990;5.704;2023-08-08T08:31:23;18.0;61.0
80192;SHT31;69513;51.990;5.704;2023-08-08T08:33:55;18.0;61.7
80192;SHT31;69513;51.990;5.704;2023-08-08T08:36:25;18.1;62.4
80192;SHT31;69513;51.990;5.704;2023-08-08T08:38:55;18.1;60.0
80192;SHT31;69513;51.990;5.704;2023-08-08T08:41:28;18.1;61.1
80192;SHT31;69513;51.990;5.704;2023-08-08T08:44:00;18.2;59.8
80192;SHT31;69513;51.990;5.704;2023-08-08T08:46:32;18.2;60.2
80192;SHT31;69513;51.990;5.704;2023-08-08T08:49:05;18.2;60.3
80192;SHT31;69513;51.990;5.704;2023-08-08T08:51:37;18.3;60.1
80192;SHT31;69513;51.990;5.704;2023-08-08T08:54:07;18.3;60.8
80192;SHT31;69513;51.990;5.704;2023-08-08T08:56:38;18.3;60.0
80192;SHT31;69513;51.990;5.704;2023-08-08T08:59:09;18.3;59.5
80192;SHT31;69513;51.990;5.704;2023-08-08T09:01:41;18.4;57.6
80192;SHT31;69513;51.990;5.704;2023-08-08T09:04:13;18.4;57.8
80192;SHT31;69513;51.990;5.704;2023-08-08T09:06:48;18.4;58.9
80192;SHT31;69513;51.990;5.704;2023-08-08T09:09:19;18.5;58.3
80192;SHT31;69513;51.990;5.704;2023-08-08T09:11:53;18.5;59.4
80192;SHT31;69513;51.990;5.704;2023-08-08T09:14:25;18.5;57.7
80192;SHT31;69513;51.990;5.704;2023-08-08T09:16:58;18.5;57.7
80192;SHT31;69513;51.990;5.704;2023-08-08T09:19:28;18.6;57.7
80192;SHT31;69513;51.990;5.704;2023-08-08T09:21:57;18.6;55.2
80192;SHT31;69513;51.990;5.704;2023-08-08T09:24:27;18.6;54.7
80192;SHT31;69513;51.990;5.704;2023-08-08T09:26:57;18.7;55.8
80192;SHT31;69513;51.990;5.704;2023-08-08T09:29:27;18.7;56.0
80192;SHT31;69513;51.990;5.704;2023-08-08T09:31:57;18.8;56.1
80192;SHT31;69513;51.990;5.704;2023-08-08T09:34:26;18.8;56.4
80192;SHT31;69513;51.990;5.704;2023-08-08T09:37:00;18.9;53.8
80192;SHT31;69513;51.990;5.704;2023-08-08T09:39:33;18.9;55.9
80192;SHT31;69513;51.990;5.704;2023-08-08T09:42:04;19.0;56.4
80192;SHT31;69513;51.990;5.704;2023-08-08T09:44:35;19.0;55.4
80192;SHT31;69513;51.990;5.704;2023-08-08T09:47:06;19.0;53.6
80192;SHT31;69513;51.990;5.704;2023-08-08T09:49:45;19.1;53.3
80192;SHT31;69513;51.990;5.704;2023-08-08T09:52:16;19.1;52.8
80192;SHT31;69513;51.990;5.704;2023-08-08T09:54:48;19.2;52.6
80192;SHT31;69513;51.990;5.704;2023-08-08T09:57:18;19.2;52.3
80192;SHT31;69513;51.990;5.704;2023-08-08T09:59:52;19.2;53.7
80192;SHT31;69513;51.990;5.704;2023-08-08T10:02:25;19.3;53.7
80192;SHT31;69513;51.990;5.704;2023-08-08T10:04:57;19.3;53.5
80192;SHT31;69513;51.990;5.704;2023-08-08T10:07:28;19.4;53.4
80192;SHT31;69513;51.990;5.704;2023-08-08T10:09:59;19.4;53.0
80192;SHT31;69513;51.990;5.704;2023-08-08T10:12:32;19.5;54.3
80192;SHT31;69513;51.990;5.704;2023-08-08T10:15:03;19.5;54.7
80192;SHT31;69513;51.990;5.704;2023-08-08T10:17:38;19.5;51.7
80192;SHT31;69513;51.990;5.704;2023-08-08T10:20:13;19.6;53.8
80192;SHT31;69513;51.990;5.704;2023-08-08T10:22:47;19.6;53.6
80192;SHT31;69513;51.990;5.704;2023-08-08T10:25:23;19.6;53.9
80192;SHT31;69513;51.990;5.704;2023-08-08T10:28:08;19.7;51.6
80192;SHT31;69513;51.990;5.704;2023-08-08T10:30:48;19.7;50.7
80192;SHT31;69513;51.990;5.704;2023-08-08T10:33:24;19.7;51.0
80192;SHT31;69513;51.990;5.704;2023-08-08T10:35:59;19.7;50.6
80192;SHT31;69513;51.990;5.704;2023-08-08T10:38:43;19.7;51.9
80192;SHT31;69513;51.990;5.704;2023-08-08T10:41:17;19.7;54.8
80192;SHT31;69513;51.990;5.704;2023-08-08T10:43:51;19.8;53.4
80192;SHT31;69513;51.990;5.704;2023-08-08T10:46:27;19.8;53.7
80192;SHT31;69513;51.990;5.704;2023-08-08T10:49:00;19.9;52.5
80192;SHT31;69513;51.990;5.704;2023-08-08T10:51:37;19.9;54.5
80192;SHT31;69513;51.990;5.704;2023-08-08T10:54:13;20.0;52.8
80192;SHT31;69513;51.990;5.704;2023-08-08T10:56:55;20.0;52.9
80192;SHT31;69513;51.990;5.704;2023-08-08T10:59:27;20.1;52.1
80192;SHT31;69513;51.990;5.704;2023-08-08T11:01:59;20.1;52.0
80192;SHT31;69513;51.990;5.704;2023-08-08T11:04:32;20.2;51.9
80192;SHT31;69513;51.990;5.704;2023-08-08T11:07:04;20.2;50.8
80192;SHT31;69513;51.990;5.704;2023-08-08T11:09:37;20.3;51.6
80192;SHT31;69513;51.990;5.704;2023-08-08T11:12:16;20.3;49.6
80192;SHT31;69513;51.990;5.704;2023-08-08T11:14:47;20.4;51.8
80192;SHT31;69513;51.990;5.704;2023-08-08T11:17:20;20.4;48.9
80192;SHT31;69513;51.990;5.704;2023-08-08T11:19:51;20.4;51.5
80192;SHT31;69513;51.990;5.704;2023-08-08T11:22:22;20.4;52.2
80192;SHT31;69513;51.990;5.704;2023-08-08T11:24:53;20.4;49.6
80192;SHT31;69513;51.990;5.704;2023-08-08T11:27:28;20.3;50.1
80192;SHT31;69513;51.990;5.704;2023-08-08T11:30:00;20.3;49.0
80192;SHT31;69513;51.990;5.704;2023-08-08T11:32:30;20.3;49.9
80192;SHT31;69513;51.990;5.704;2023-08-08T11:35:01;20.3;52.9
80192;SHT31;69513;51.990;5.704;2023-08-08T11:37:31;20.3;50.6
80192;SHT31;69513;51.990;5.704;2023-08-08T11:40:03;20.4;52.0
80192;SHT31;69513;51.990;5.704;2023-08-08T11:42:40;20.4;50.2
80192;SHT31;69513;51.990;5.704;2023-08-08T11:45:14;20.5;50.8
80192;SHT31;69513;51.990;5.704;2023-08-08T11:47:49;20.5;50.9
80192;SHT31;69513;51.990;5.704;2023-08-08T11:50:22;20.6;51.1
80192;SHT31;69513;51.990;5.704;2023-08-08T11:52:56;20.7;49.8
80192;SHT31;69513;51.990;5.704;2023-08-08T11:55:30;20.7;51.6
80192;SHT31;69513;51.990;5.704;2023-08-08T11:58:00;20.7;52.4
80192;SHT31;69513;51.990;5.704;2023-08-08T12:00:33;20.8;51.6
80192;SHT31;69513;51.990;5.704;2023-08-08T12:03:05;20.8;50.5
80192;SHT31;69513;51.990;5.704;2023-08-08T12:05:39;20.9;49.8
80192;SHT31;69513;51.990;5.704;2023-08-08T12:08:10;20.9;49.7
80192;SHT31;69513;51.990;5.704;2023-08-08T12:10:50;20.9;46.9
80192;SHT31;69513;51.990;5.704;2023-08-08T12:13:25;21.0;49.2
80192;SHT31;69513;51.990;5.704;2023-08-08T12:15:59;21.0;48.7
80192;SHT31;69513;51.990;5.704;2023-08-08T12:18:30;21.0;49.3
80192;SHT31;69513;51.990;5.704;2023-08-08T12:21:01;21.0;48.7
80192;SHT31;69513;51.990;5.704;2023-08-08T12:23:33;21.1;48.6
80192;SHT31;69513;51.990;5.704;2023-08-08T12:26:05;21.1;51.8
80192;SHT31;69513;51.990;5.704;2023-08-08T12:28:36;21.1;52.0
80192;SHT31;69513;51.990;5.704;2023-08-08T12:31:07;21.1;52.0
80192;SHT31;69513;51.990;5.704;2023-08-08T12:33:36;21.2;50.6
80192;SHT31;69513;51.990;5.704;2023-08-08T12:36:08;21.2;48.6
80192;SHT31;69513;51.990;5.704;2023-08-08T12:38:39;21.3;48.3
80192;SHT31;69513;51.990;5.704;2023-08-08T12:41:11;21.4;50.3
80192;SHT31;69513;51.990;5.704;2023-08-08T12:43:41;21.4;50.8
80192;SHT31;69513;51.990;5.704;2023-08-08T12:46:12;21.5;50.1
80192;SHT31;69513;51.990;5.704;2023-08-08T12:48:41;21.6;50.1
80192;SHT31;69513;51.990;5.704;2023-08-08T12:51:14;21.8;49.7
80192;SHT31;69513;51.990;5.704;2023-08-08T12:53:45;21.8;49.4
80192;SHT31;69513;51.990;5.704;2023-08-08T12:56:15;21.9;49.5
80192;SHT31;69513;51.990;5.704;2023-08-08T12:58:45;22.0;50.8
80192;SHT31;69513;51.990;5.704;2023-08-08T13:01:14;22.1;47.9
80192;SHT31;69513;51.990;5.704;2023-08-08T13:03:44;22.2;48.7
80192;SHT31;69513;51.990;5.704;2023-08-08T13:06:13;22.2;47.9
80192;SHT31;69513;51.990;5.704;2023-08-08T13:08:43;22.2;44.9
80192;SHT31;69513;51.990;5.704;2023-08-08T13:11:15;22.2;46.4
80192;SHT31;69513;51.990;5.704;2023-08-08T13:13:44;22.1;46.7
80192;SHT31;69513;51.990;5.704;2023-08-08T13:16:14;22.0;46.2
80192;SHT31;69513;51.990;5.704;2023-08-08T13:18:43;22.0;46.1
80192;SHT31;69513;51.990;5.704;2023-08-08T13:21:14;21.9;48.0
80192;SHT31;69513;51.990;5.704;2023-08-08T13:23:44;21.7;47.2
80192;SHT31;69513;51.990;5.704;2023-08-08T13:26:14;21.7;48.0
80192;SHT31;69513;51.990;5.704;2023-08-08T13:28:45;21.6;49.3
80192;SHT31;69513;51.990;5.704;2023-08-08T13:31:16;21.6;48.8
80192;SHT31;69513;51.990;5.704;2023-08-08T13:33:46;21.6;49.3
80192;SHT31;69513;51.990;5.704;2023-08-08T13:36:16;21.6;49.5
80192;SHT31;69513;51.990;5.704;2023-08-08T13:38:46;21.6;48.0
80192;SHT31;69513;51.990;5.704;2023-08-08T13:41:15;21.6;48.1
80192;SHT31;69513;51.990;5.704;2023-08-08T13:43:45;21.7;50.4
80192;SHT31;69513;51.990;5.704;2023-08-08T13:46:15;21.7;50.2
80192;SHT31;69513;51.990;5.704;2023-08-08T13:48:46;21.8;46.9
80192;SHT31;69513;51.990;5.704;2023-08-08T13:51:16;21.8;48.5
80192;SHT31;69513;51.990;5.704;2023-08-08T13:53:45;21.8;49.1
80192;SHT31;69513;51.990;5.704;2023-08-08T13:56:19;21.9;48.4
80192;SHT31;69513;51.990;5.704;2023-08-08T13:58:49;21.9;47.7
80192;SHT31;69513;51.990;5.704;2023-08-08T14:01:19;21.9;48.3
80192;SHT31;69513;51.990;5.704;2023-08-08T14:03:48;21.9;48.3
80192;SHT31;69513;51.990;5.704;2023-08-08T14:06:18;21.9;49.3
80192;SHT31;69513;51.990;5.704;2023-08-08T14:08:47;21.8;48.0
80192;SHT31;69513;51.990;5.704;2023-08-08T14:11:20;21.8;46.7
80192;SHT31;69513;51.990;5.704;2023-08-08T14:13:49;21.7;47.8
80192;SHT31;69513;51.990;5.704;2023-08-08T14:16:19;21.6;47.6
80192;SHT31;69513;51.990;5.704;2023-08-08T14:18:49;21.5;48.8
80192;SHT31;69513;51.990;5.704;2023-08-08T14:21:20;21.5;47.7
80192;SHT31;69513;51.990;5.704;2023-08-08T14:23:49;21.4;47.3
80192;SHT31;69513;51.990;5.704;2023-08-08T14:26:19;21.3;48.4
80192;SHT31;69513;51.990;5.704;2023-08-08T14:28:49;21.3;49.8
80192;SHT31;69513;51.990;5.704;2023-08-08T14:31:19;21.2;48.5
80192;SHT31;69513;51.990;5.704;2023-08-08T14:33:48;21.2;48.6
80192;SHT31;69513;51.990;5.704;2023-08-08T14:36:18;21.2;49.7
80192;SHT31;69513;51.990;5.704;2023-08-08T14:38:50;21.1;48.7
80192;SHT31;69513;51.990;5.704;2023-08-08T14:41:20;21.1;48.1
80192;SHT31;69513;51.990;5.704;2023-08-08T14:43:50;21.1;48.4
80192;SHT31;69513;51.990;5.704;2023-08-08T14:46:19;21.1;50.6
80192;SHT31;69513;51.990;5.704;2023-08-08T14:48:49;21.1;51.8
80192;SHT31;69513;51.990;5.704;2023-08-08T14:51:20;21.2;48.4
80192;SHT31;69513;51.990;5.704;2023-08-08T14:53:50;21.2;48.7
80192;SHT31;69513;51.990;5.704;2023-08-08T14:56:19;21.2;48.8
80192;SHT31;69513;51.990;5.704;2023-08-08T14:58:49;21.3;47.8
80192;SHT31;69513;51.990;5.704;2023-08-08T15:01:19;21.3;50.4
80192;SHT31;69513;51.990;5.704;2023-08-08T15:03:50;21.3;50.5
80192;SHT31;69513;51.990;5.704;2023-08-08T15:06:22;21.3;47.7
80192;SHT31;69513;51.990;5.704;2023-08-08T15:08:53;21.3;47.9
80192;SHT31;69513;51.990;5.704;2023-08-08T15:11:22;21.3;48.0
80192;SHT31;69513;51.990;5.704;2023-08-08T15:13:53;21.3;48.5
80192;SHT31;69513;51.990;5.704;2023-08-08T15:16:23;21.3;49.5
80192;SHT31;69513;51.990;5.704;2023-08-08T15:18:53;21.3;48.3
80192;SHT31;69513;51.990;5.704;2023-08-08T15:21:23;21.3;46.1
80192;SHT31;69513;51.990;5.704;2023-08-08T15:23:54;21.3;47.4
80192;SHT31;69513;51.990;5.704;2023-08-08T15:26:24;21.3;49.0
80192;SHT31;69513;51.990;5.704;2023-08-08T15:28:54;21.3;47.9
80192;SHT31;69513;51.990;5.704;2023-08-08T15:31:24;21.3;48.8
80192;SHT31;69513;51.990;5.704;2023-08-08T15:33:53;21.3;48.8
80192;SHT31;69513;51.990;5.704;2023-08-08T15:36:24;21.3;48.4
80192;SHT31;69513;51.990;5.704;2023-08-08T15:38:54;21.3;49.2
80192;SHT31;69513;51.990;5.704;2023-08-08T15:41:24;21.3;47.7
80192;SHT31;69513;51.990;5.704;2023-08-08T15:43:54;21.3;49.0
80192;SHT31;69513;51.990;5.704;2023-08-08T15:46:24;21.4;49.7
80192;SHT31;69513;51.990;5.704;2023-08-08T15:48:54;21.4;50.7
80192;SHT31;69513;51.990;5.704;2023-08-08T15:51:26;21.4;50.6
80192;SHT31;69513;51.990;5.704;2023-08-08T15:53:55;21.5;50.4
80192;SHT31;69513;51.990;5.704;2023-08-08T15:56:26;21.5;50.8
80192;SHT31;69513;51.990;5.704;2023-08-08T15:58:57;21.6;48.7
80192;SHT31;69513;51.990;5.704;2023-08-08T16:01:28;21.6;49.8
80192;SHT31;69513;51.990;5.704;2023-08-08T16:03:57;21.6;47.3
80192;SHT31;69513;51.990;5.704;2023-08-08T16:06:27;21.6;47.7
80192;SHT31;69513;51.990;5.704;2023-08-08T16:08:56;21.6;49.9
80192;SHT31;69513;51.990;5.704;2023-08-08T16:11:27;21.7;48.3
80192;SHT31;69513;51.990;5.704;2023-08-08T16:13:56;21.8;48.7
80192;SHT31;69513;51.990;5.704;2023-08-08T16:16:26;21.8;47.6
80192;SHT31;69513;51.990;5.704;2023-08-08T16:18:55;21.9;49.2
80192;SHT31;69513;51.990;5.704;2023-08-08T16:21:25;21.9;50.5
80192;SHT31;69513;51.990;5.704;2023-08-08T16:23:54;21.9;48.9
80192;SHT31;69513;51.990;5.704;2023-08-08T16:26:25;21.8;49.7